createdAt,value
2023-11-18T00:01:36.514Z,80.22
2023-11-18T00:06:38.135Z,67.35
2023-11-18T00:11:40.541Z,65.72
2023-11-18T00:16:42.276Z,64.90
2023-11-18T00:21:45.116Z,65.05
2023-11-18T00:26:46.650Z,59.15
2023-11-18T00:31:48.293Z,58.20
2023-11-18T00:36:49.866Z,61.55
2023-11-18T00:41:51.441Z,59.33
2023-11-18T00:46:53.235Z,59.80
2023-11-18T00:51:54.842Z,60.45
2023-11-18T00:56:56.363Z,60.85
2023-11-18T01:01:57.976Z,64.97
2023-11-18T01:06:59.628Z,67.78
2023-11-18T01:12:08.061Z,68.20
2023-11-18T01:17:10.756Z,63.72
2023-11-18T01:22:12.952Z,59.10
2023-11-18T01:27:14.573Z,56.65
2023-11-18T01:32:16.348Z,60.20
2023-11-18T01:37:18.221Z,58.22
2023-11-18T01:42:19.849Z,52.90
2023-11-18T01:47:21.378Z,53.30
2023-11-18T01:52:22.993Z,50.70
2023-11-18T01:57:25.205Z,61.15
2023-11-18T02:02:27.488Z,54.63
2023-11-18T02:07:30.394Z,55.75
2023-11-18T02:12:59.978Z,54.67
2023-11-18T02:18:03.544Z,53.70
2023-11-18T02:23:05.821Z,52.75
2023-11-18T02:28:07.405Z,58.85
2023-11-18T02:33:20.022Z,60.20
2023-11-18T02:38:28.145Z,54.72
2023-11-18T02:43:32.539Z,58.60
2023-11-18T02:48:34.192Z,59.80
2023-11-18T02:53:36.279Z,60.03
2023-11-18T02:58:37.874Z,61.53
2023-11-18T03:03:39.484Z,56.20
2023-11-18T03:08:42.688Z,53.38
2023-11-18T03:13:44.372Z,51.92
2023-11-18T03:18:46.557Z,51.53
2023-11-18T03:23:48.182Z,59.00
2023-11-18T03:28:50.375Z,55.83
2023-11-18T03:33:51.971Z,52.92
2023-11-18T03:38:53.620Z,52.40
2023-11-18T03:43:55.267Z,54.80
2023-11-18T03:48:56.874Z,47.17
2023-11-18T03:53:58.498Z,56.15
2023-11-18T03:59:00.096Z,50.25
2023-11-18T04:04:02.003Z,50.33
2023-11-18T04:09:04.085Z,50.25
2023-11-18T04:14:05.848Z,51.38
2023-11-18T04:19:07.754Z,45.05
2023-11-18T04:24:09.603Z,50.90
2023-11-18T04:29:11.166Z,45.47
2023-11-18T04:34:12.943Z,46.33
2023-11-18T04:39:17.226Z,49.03
2023-11-18T04:44:18.966Z,53.88
2023-11-18T04:49:20.649Z,52.00
2023-11-18T04:54:22.181Z,50.28
2023-11-18T04:59:23.896Z,45.72
2023-11-18T05:04:25.453Z,43.22
2023-11-18T05:09:27.055Z,40.50
2023-11-18T05:14:29.946Z,44.72
2023-11-18T05:19:31.584Z,39.78
2023-11-18T05:24:33.275Z,37.85
2023-11-18T05:29:35.319Z,36.03
2023-11-18T05:34:37.040Z,38.20
2023-11-18T05:39:44.143Z,41.60
2023-11-18T05:44:45.971Z,43.50
2023-11-18T05:49:47.493Z,42.80
2023-11-18T05:54:49.407Z,40.72
2023-11-18T05:59:51.250Z,40.50
2023-11-18T06:04:53.211Z,47.00
2023-11-18T06:09:54.764Z,43.55
2023-11-18T06:14:56.406Z,43.63
2023-11-18T06:19:58.018Z,39.20
2023-11-18T06:24:59.560Z,38.70
2023-11-18T06:30:01.102Z,40.97
2023-11-18T06:35:06.706Z,39.22
2023-11-18T06:40:17.356Z,38.35
2023-11-18T06:45:19.022Z,38.03
2023-11-18T06:50:25.496Z,41.40
2023-11-18T06:55:27.989Z,34.95
2023-11-18T07:00:30.010Z,37.10
2023-11-18T07:05:31.630Z,39.67
2023-11-18T07:10:33.196Z,35.63
2023-11-18T07:15:34.740Z,41.90
2023-11-18T07:20:36.496Z,36.15
2023-11-18T07:25:38.731Z,35.50
2023-11-18T07:30:40.372Z,45.10
2023-11-18T07:35:41.890Z,36.60
2023-11-18T07:40:46.904Z,39.65
2023-11-18T07:45:51.691Z,38.17
2023-11-18T07:50:53.283Z,37.70
2023-11-18T07:55:54.877Z,44.10
2023-11-18T08:00:56.449Z,43.63
2023-11-18T08:05:59.123Z,39.45
2023-11-18T08:11:02.132Z,43.08
2023-11-18T08:16:03.945Z,41.97
2023-11-18T08:21:08.176Z,43.63
2023-11-18T08:26:13.193Z,42.65
2023-11-18T08:31:18.592Z,44.50
2023-11-18T08:36:20.263Z,37.72
2023-11-18T08:41:23.401Z,42.40
2023-11-18T08:46:26.169Z,40.95
2023-11-18T08:51:27.737Z,39.42
2023-11-18T08:56:35.909Z,39.70
2023-11-18T09:01:37.571Z,36.97
2023-11-18T09:06:40.565Z,33.97
2023-11-18T09:11:43.205Z,32.88
2023-11-18T09:16:45.218Z,37.47
2023-11-18T09:21:46.744Z,35.97
2023-11-18T09:26:49.218Z,31.98
2023-11-18T09:31:53.625Z,49.20
2023-11-18T09:36:55.742Z,34.45
2023-11-18T09:41:57.722Z,29.92
2023-11-18T09:47:05.958Z,30.85
2023-11-18T09:52:07.845Z,30.40
2023-11-18T09:57:38.239Z,25.88
2023-11-18T10:02:41.386Z,27.50
2023-11-18T10:07:43.466Z,31.98
2023-11-18T10:12:46.402Z,25.13
2023-11-18T10:18:06.552Z,24.92
2023-11-18T10:23:11.615Z,28.52
2023-11-18T10:28:34.915Z,27.17
2023-11-18T10:33:38.390Z,30.77
2023-11-18T10:38:50.316Z,33.00
2023-11-18T10:44:08.039Z,25.38
2023-11-18T10:49:11.218Z,30.02
2023-11-18T10:54:18.325Z,25.15
2023-11-18T10:59:20.181Z,28.43
2023-11-18T11:04:22.420Z,27.20
2023-11-18T11:09:28.517Z,29.17
2023-11-18T11:14:39.732Z,34.63
2023-11-18T11:20:25.800Z,29.05
2023-11-18T11:25:37.410Z,28.33
2023-11-18T11:30:46.469Z,25.58
2023-11-18T11:35:58.297Z,29.25
2023-11-18T11:41:02.851Z,30.40
2023-11-18T11:46:11.614Z,25.30
2023-11-18T11:51:27.332Z,25.58
2023-11-18T11:56:44.287Z,24.25
2023-11-18T12:01:53.634Z,23.63
2023-11-18T12:07:05.783Z,21.70
2023-11-18T12:12:27.639Z,22.75
2023-11-18T12:17:33.804Z,30.58
2023-11-18T12:23:06.711Z,22.83
2023-11-18T12:28:09.607Z,25.92
2023-11-18T12:33:12.286Z,26.38
2023-11-18T12:38:49.093Z,29.83
2023-11-18T12:44:09.929Z,32.60
2023-11-18T12:49:22.887Z,18.77
2023-11-18T12:54:29.594Z,18.25
2023-11-18T12:59:31.765Z,23.92
2023-11-18T13:04:35.292Z,23.17
2023-11-18T13:09:37.285Z,15.80
2023-11-18T13:14:40.950Z,16.25
2023-11-18T13:19:43.609Z,19.58
2023-11-18T13:24:45.313Z,19.33
2023-11-18T13:29:52.395Z,16.20
2023-11-18T13:34:54.433Z,21.27
2023-11-18T13:39:57.134Z,15.80
2023-11-18T13:45:09.803Z,17.65
2023-11-18T13:50:11.797Z,15.15
2023-11-18T13:55:18.246Z,14.35
2023-11-18T14:00:24.380Z,13.80
2023-11-18T14:05:26.257Z,21.25
2023-11-18T14:10:27.822Z,29.50
2023-11-18T14:15:30.972Z,16.55
2023-11-18T14:20:32.676Z,12.43
2023-11-18T14:25:35.062Z,11.18
2023-11-18T14:30:36.977Z,11.32
2023-11-18T14:35:39.201Z,10.38
2023-11-18T14:40:42.718Z,6.88
2023-11-18T14:45:44.482Z,9.10
2023-11-18T14:50:46.225Z,9.68
2023-11-18T14:55:47.785Z,9.45
2023-11-18T15:00:49.337Z,11.23
2023-11-18T15:05:50.954Z,9.05
2023-11-18T15:10:52.540Z,7.85
2023-11-18T15:15:54.131Z,6.47
2023-11-18T15:20:57.690Z,6.63
2023-11-18T15:25:59.343Z,7.85
2023-11-18T15:31:02.303Z,8.52
2023-11-18T15:36:04.626Z,8.10
2023-11-18T15:41:06.296Z,4.07
2023-11-18T15:46:12.006Z,9.48
2023-11-18T15:51:16.994Z,6.55
2023-11-18T15:56:20.217Z,5.00
2023-11-18T16:01:21.886Z,10.77
2023-11-18T16:06:23.464Z,6.53
2023-11-18T16:11:25.089Z,5.38
2023-11-18T16:16:28.368Z,5.40
2023-11-18T16:21:30.037Z,9.18
2023-11-18T16:26:31.731Z,7.30
2023-11-18T16:31:35.086Z,5.45
2023-11-18T16:36:39.422Z,6.47
2023-11-18T16:41:45.741Z,5.50
2023-11-18T16:46:47.855Z,6.23
2023-11-18T16:51:54.085Z,6.95
2023-11-18T16:56:57.587Z,8.05
2023-11-18T17:01:59.202Z,10.30
2023-11-18T17:07:00.742Z,14.15
2023-11-18T17:12:02.594Z,29.80
2023-11-18T17:17:05.515Z,12.48
2023-11-18T17:22:07.152Z,11.40
2023-11-18T17:27:09.610Z,11.88
2023-11-18T17:32:11.212Z,10.43
2023-11-18T17:37:13.002Z,7.15
2023-11-18T17:42:16.671Z,8.82
2023-11-18T17:47:18.584Z,8.15
2023-11-18T17:52:20.148Z,6.85
2023-11-18T17:57:22.089Z,5.07
2023-11-18T18:02:23.747Z,13.35
2023-11-18T18:07:25.472Z,5.63
2023-11-18T18:12:28.108Z,5.88
2023-11-18T18:17:30.097Z,7.80
2023-11-18T18:22:31.724Z,6.70
2023-11-18T18:27:36.079Z,6.93
2023-11-18T18:32:38.343Z,7.80
2023-11-18T18:37:40.039Z,7.88
2023-11-18T18:42:44.305Z,9.57
2023-11-18T18:47:46.026Z,9.95
2023-11-18T18:52:47.776Z,14.88
2023-11-18T18:57:49.322Z,18.98
2023-11-18T19:02:51.424Z,26.80
2023-11-18T19:07:56.702Z,28.83
2023-11-18T19:13:01.210Z,40.25
2023-11-18T19:18:03.514Z,60.00
2023-11-18T19:23:05.117Z,66.03
2023-11-18T19:28:10.193Z,84.13
2023-11-18T19:33:13.688Z,93.50
2023-11-18T19:38:15.334Z,88.43
2023-11-18T19:43:16.930Z,94.75
2023-11-18T19:48:19.053Z,108.30
2023-11-18T19:53:21.665Z,123.07
2023-11-18T19:58:23.468Z,112.43
2023-11-18T20:03:25.893Z,118.20
2023-11-18T20:08:27.590Z,122.70
2023-11-18T20:13:29.117Z,117.32
2023-11-18T20:18:30.690Z,121.78
2023-11-18T20:23:32.399Z,109.70
2023-11-18T20:28:36.297Z,118.50
2023-11-18T20:33:42.639Z,104.60
2023-11-18T20:38:44.834Z,92.57
2023-11-18T20:43:47.741Z,85.70
2023-11-18T20:48:50.287Z,60.88
2023-11-18T20:53:51.911Z,63.20
2023-11-18T20:58:53.613Z,58.95
2023-11-18T21:03:55.324Z,50.53
2023-11-18T21:08:58.291Z,50.35
2023-11-18T21:13:59.843Z,54.28
2023-11-18T21:19:02.550Z,50.50
2023-11-18T21:24:04.609Z,54.58
2023-11-18T21:29:06.145Z,52.35
2023-11-18T21:34:07.701Z,44.35
2023-11-18T21:39:14.443Z,52.83
2023-11-18T21:44:15.959Z,57.90
2023-11-18T21:49:17.519Z,60.53
2023-11-18T21:54:19.025Z,58.00
2023-11-18T21:59:20.595Z,55.95
2023-11-18T22:04:22.515Z,56.92
2023-11-18T22:09:25.020Z,54.05
2023-11-18T22:14:26.848Z,52.10
2023-11-18T22:19:29.280Z,55.97
2023-11-18T22:24:30.879Z,58.58
2023-11-18T22:29:33.906Z,58.45
2023-11-18T22:34:36.386Z,55.80
2023-11-18T22:39:38.038Z,57.78
2023-11-18T22:44:46.298Z,59.35
2023-11-18T22:49:47.860Z,58.50
2023-11-18T22:54:49.417Z,61.33
2023-11-18T22:59:51.918Z,60.15
2023-11-18T23:04:53.720Z,58.70
2023-11-18T23:09:59.053Z,64.63
2023-11-18T23:15:01.560Z,69.88
2023-11-18T23:20:03.679Z,61.97
2023-11-18T23:25:06.028Z,66.40
2023-11-18T23:30:13.550Z,69.93
2023-11-18T23:40:17.077Z,52.70
2023-11-18T23:45:19.871Z,59.58
2023-11-18T23:50:25.012Z,66.97
2023-11-18T23:55:26.735Z,67.72
